»·PEaware :: N8DL KAUN-KTRK

N8DL :: KAUN-KTRK

FLIGHT INFORMATION

Flight Status: Arrived
Operator: Privately registered:
United States
More flights under this callsign
Pilot: Dean L. (8400)
Aircraft: CESSNA 310
(C310)
More flights by this aircraft type
Origin: KAUN Auburn Mun
United States
Destination: KTRK Truckee-Tahoe
United States
More flights between these airports :: More routes between these airports
Route: +HNW V338 SWR
File this flight plan on PilotEdge
Remarks:
Altitude:
(Current/Filed)
12,000ft
Speed:
(Current/Filed)
180kts
Departed: 06-Jan-19 03:06 PM
Arrived: 06-Jan-19 03:52 PM
Distance/Time
Traveled:
49nm/0:46
Distance/Time
To Go:
Arrived

Flight Plot

Page will automatically refresh every two minutes.

Flight plan parsing failed; only flown route is shown


Map Options




Map Legend


Flown Route
Filed Route
Departure Airport
Arrival Airport
Navaid (VOR, NDB)
Fix

Horizontal Profiles

Position Reports

Time Latitude Longitude Heading Altitude Ground
Speed
06-Jan-19 15:00 38.953131 -121.080150 178 1503ft 0kts
06-Jan-19 15:01 38.953131 -121.080150 178 1503ft 0kts
06-Jan-19 15:02 38.953119 -121.080432 300 1503ft 7kts
06-Jan-19 15:03 38.954504 -121.079811 91 1503ft 23kts
06-Jan-19 15:04 38.954851 -121.075910 76 1503ft 0kts
06-Jan-19 15:05 38.954851 -121.075909 76 1503ft 0kts
06-Jan-19 15:06 38.954331 -121.087431 250 1575ft 104kts
06-Jan-19 15:07 38.966651 -121.119386 236 3306ft 90kts
06-Jan-19 15:08 38.942141 -121.112236 161 4547ft 122kts
06-Jan-19 15:09 38.934122 -121.150261 294 5552ft 168kts
06-Jan-19 15:10 38.962899 -121.194515 303 7016ft 155kts
06-Jan-19 15:11 38.992114 -121.232334 303 8464ft 139kts
06-Jan-19 15:12 39.021238 -121.215716 71 9542ft 144kts
06-Jan-19 15:13 39.031554 -121.163270 91 10337ft 167kts
06-Jan-19 15:14 39.038323 -121.098090 89 10817ft 186kts
06-Jan-19 15:15 39.026931 -121.038180 130 11517ft 168kts
06-Jan-19 15:15 39.006875 -120.995074 143 12019ft 167kts
06-Jan-19 15:17 38.961933 -120.951316 158 12008ft 180kts
06-Jan-19 15:18 38.921121 -120.916779 158 12006ft 181kts
06-Jan-19 15:18 38.885833 -120.887112 158 12007ft 182kts
06-Jan-19 15:20 38.836291 -120.845528 158 12007ft 182kts
06-Jan-19 15:20 38.800855 -120.815800 157 12007ft 182kts
06-Jan-19 15:21 38.762267 -120.773380 117 12011ft 206kts
06-Jan-19 15:22 38.755992 -120.698307 89 12012ft 220kts
06-Jan-19 15:23 38.764386 -120.620629 73 12002ft 224kts
06-Jan-19 15:24 38.810953 -120.568668 28 11995ft 224kts
06-Jan-19 15:25 38.864378 -120.526339 27 11985ft 225kts
06-Jan-19 15:26 38.917654 -120.484214 27 11960ft 226kts
06-Jan-19 15:27 38.962633 -120.448586 27 11954ft 225kts
06-Jan-19 15:28 38.982823 -120.432583 27 11950ft 225kts
06-Jan-19 15:29 39.035551 -120.390570 27 11946ft 226kts
06-Jan-19 15:30 39.088646 -120.343747 59 11510ft 239kts
06-Jan-19 15:31 39.134912 -120.287561 20 11034ft 236kts
06-Jan-19 15:32 39.195163 -120.262050 356 10931ft 216kts
06-Jan-19 15:33 39.254425 -120.264636 349 10932ft 211kts
06-Jan-19 15:34 39.286499 -120.268573 345 10932ft 210kts
06-Jan-19 15:35 39.286499 -120.268573 345 10932ft 210kts
06-Jan-19 15:36 39.286499 -120.268573 345 10932ft 210kts
06-Jan-19 15:37 39.321243 -120.273924 341 10932ft 208kts
06-Jan-19 15:38 39.374343 -120.298551 329 10939ft 202kts
06-Jan-19 15:39 39.427049 -120.324659 334 10939ft 203kts
06-Jan-19 15:40 39.483098 -120.338612 336 10940ft 204kts
06-Jan-19 15:41 39.534078 -120.364785 293 10938ft 181kts
06-Jan-19 15:42 39.564844 -120.415975 323 10945ft 198kts
06-Jan-19 15:43 39.608906 -120.389590 95 10940ft 212kts
06-Jan-19 15:44 39.573186 -120.350155 171 10944ft 172kts
06-Jan-19 15:45 39.526978 -120.335284 175 10938ft 171kts
06-Jan-19 15:46 39.478323 -120.313087 146 10263ft 202kts
06-Jan-19 15:47 39.439378 -120.269134 177 9581ft 180kts
06-Jan-19 15:48 39.394568 -120.243399 149 8913ft 165kts
06-Jan-19 15:49 39.363771 -120.206617 137 8012ft 146kts
06-Jan-19 15:50 39.335731 -120.171566 134 6922ft 125kts
06-Jan-19 15:51 39.319563 -120.141004 144 5903ft 28kts
06-Jan-19 15:52 39.319297 -120.140827 195 5903ft 0kts
06-Jan-19 15:53 39.319297 -120.140827 195 5903ft 0kts
06-Jan-19 15:54 39.319297 -120.140827 195 5903ft 0kts

Navigation Log

Ident Type
Flight plan parsing failed, navigation log unavailable